sensor_id;sensor_type;location;lat;lon;timestamp;P1;durP1;ratioP1;P2;durP2;ratioP2
20449;SDS011;10384;51.940;8.432;2022-08-20T00:00:29;19.73;;;8.63;;
20449;SDS011;10384;51.940;8.432;2022-08-20T00:02:59;19.93;;;9.97;;
20449;SDS011;10384;51.940;8.432;2022-08-20T00:05:33;21.30;;;9.13;;
20449;SDS011;10384;51.940;8.432;2022-08-20T00:08:00;20.17;;;9.23;;
20449;SDS011;10384;51.940;8.432;2022-08-20T00:10:28;23.17;;;9.90;;
20449;SDS011;10384;51.940;8.432;2022-08-20T00:12:55;22.00;;;10.33;;
20449;SDS011;10384;51.940;8.432;2022-08-20T00:15:23;20.90;;;9.80;;
20449;SDS011;10384;51.940;8.432;2022-08-20T00:17:50;18.83;;;9.80;;
20449;SDS011;10384;51.940;8.432;2022-08-20T00:20:16;20.20;;;9.60;;
20449;SDS011;10384;51.940;8.432;2022-08-20T00:22:43;23.60;;;10.03;;
20449;SDS011;10384;51.940;8.432;2022-08-20T00:25:09;20.77;;;9.37;;
20449;SDS011;10384;51.940;8.432;2022-08-20T00:27:36;17.17;;;9.13;;
20449;SDS011;10384;51.940;8.432;2022-08-20T00:30:06;21.37;;;9.17;;
20449;SDS011;10384;51.940;8.432;2022-08-20T00:32:40;21.07;;;8.57;;
20449;SDS011;10384;51.940;8.432;2022-08-20T00:35:07;16.23;;;8.50;;
20449;SDS011;10384;51.940;8.432;2022-08-20T00:37:33;18.00;;;9.03;;
20449;SDS011;10384;51.940;8.432;2022-08-20T00:39:59;18.73;;;9.17;;
20449;SDS011;10384;51.940;8.432;2022-08-20T00:42:25;17.33;;;9.07;;
20449;SDS011;10384;51.940;8.432;2022-08-20T00:44:51;16.13;;;8.03;;
20449;SDS011;10384;51.940;8.432;2022-08-20T00:47:17;25.37;;;9.23;;
20449;SDS011;10384;51.940;8.432;2022-08-20T00:49:44;18.53;;;9.27;;
20449;SDS011;10384;51.940;8.432;2022-08-20T00:52:11;17.43;;;8.27;;
20449;SDS011;10384;51.940;8.432;2022-08-20T00:54:38;19.53;;;8.57;;
20449;SDS011;10384;51.940;8.432;2022-08-20T00:57:08;17.87;;;8.50;;
20449;SDS011;10384;51.940;8.432;2022-08-20T00:59:35;19.33;;;8.50;;
20449;SDS011;10384;51.940;8.432;2022-08-20T01:02:04;17.90;;;8.37;;
20449;SDS011;10384;51.940;8.432;2022-08-20T01:04:32;16.07;;;8.30;;
20449;SDS011;10384;51.940;8.432;2022-08-20T01:06:58;16.77;;;8.23;;
20449;SDS011;10384;51.940;8.432;2022-08-20T01:09:25;18.37;;;8.37;;
20449;SDS011;10384;51.940;8.432;2022-08-20T01:11:52;17.23;;;9.17;;
20449;SDS011;10384;51.940;8.432;2022-08-20T01:14:18;18.90;;;9.47;;
20449;SDS011;10384;51.940;8.432;2022-08-20T01:16:50;15.90;;;7.87;;
20449;SDS011;10384;51.940;8.432;2022-08-20T01:19:19;17.40;;;8.20;;
20449;SDS011;10384;51.940;8.432;2022-08-20T01:21:46;17.27;;;8.33;;
20449;SDS011;10384;51.940;8.432;2022-08-20T01:24:15;17.30;;;8.60;;
20449;SDS011;10384;51.940;8.432;2022-08-20T01:26:43;17.03;;;7.77;;
20449;SDS011;10384;51.940;8.432;2022-08-20T01:29:11;15.93;;;8.37;;
20449;SDS011;10384;51.940;8.432;2022-08-20T01:31:39;18.27;;;8.47;;
20449;SDS011;10384;51.940;8.432;2022-08-20T01:34:06;16.03;;;8.80;;
20449;SDS011;10384;51.940;8.432;2022-08-20T01:36:34;16.50;;;8.83;;
20449;SDS011;10384;51.940;8.432;2022-08-20T01:39:00;20.33;;;9.37;;
20449;SDS011;10384;51.940;8.432;2022-08-20T01:44:11;17.50;;;9.80;;
20449;SDS011;10384;51.940;8.432;2022-08-20T01:46:38;17.77;;;8.40;;
20449;SDS011;10384;51.940;8.432;2022-08-20T01:49:15;19.30;;;9.03;;
20449;SDS011;10384;51.940;8.432;2022-08-20T01:51:42;16.87;;;8.60;;
20449;SDS011;10384;51.940;8.432;2022-08-20T01:54:08;18.77;;;9.37;;
20449;SDS011;10384;51.940;8.432;2022-08-20T01:56:34;16.33;;;8.93;;
20449;SDS011;10384;51.940;8.432;2022-08-20T01:59:01;19.43;;;9.20;;
20449;SDS011;10384;51.940;8.432;2022-08-20T02:01:30;19.23;;;9.10;;
20449;SDS011;10384;51.940;8.432;2022-08-20T02:04:01;20.00;;;9.60;;
20449;SDS011;10384;51.940;8.432;2022-08-20T02:06:28;18.23;;;8.80;;
20449;SDS011;10384;51.940;8.432;2022-08-20T02:08:56;17.03;;;8.83;;
20449;SDS011;10384;51.940;8.432;2022-08-20T02:11:24;19.10;;;8.90;;
20449;SDS011;10384;51.940;8.432;2022-08-20T02:13:51;19.27;;;8.40;;
20449;SDS011;10384;51.940;8.432;2022-08-20T02:16:22;19.90;;;9.10;;
20449;SDS011;10384;51.940;8.432;2022-08-20T02:18:51;19.27;;;9.13;;
20449;SDS011;10384;51.940;8.432;2022-08-20T02:21:19;16.67;;;8.33;;
20449;SDS011;10384;51.940;8.432;2022-08-20T02:23:45;17.63;;;8.53;;
20449;SDS011;10384;51.940;8.432;2022-08-20T02:26:11;16.20;;;8.50;;
20449;SDS011;10384;51.940;8.432;2022-08-20T02:28:37;17.67;;;9.33;;
20449;SDS011;10384;51.940;8.432;2022-08-20T02:31:03;18.50;;;8.47;;
20449;SDS011;10384;51.940;8.432;2022-08-20T02:33:32;16.23;;;7.77;;
20449;SDS011;10384;51.940;8.432;2022-08-20T02:35:58;16.87;;;8.03;;
20449;SDS011;10384;51.940;8.432;2022-08-20T02:38:24;16.57;;;9.07;;
20449;SDS011;10384;51.940;8.432;2022-08-20T02:40:50;20.83;;;9.00;;
20449;SDS011;10384;51.940;8.432;2022-08-20T02:43:16;19.17;;;8.77;;
20449;SDS011;10384;51.940;8.432;2022-08-20T02:45:44;20.83;;;8.90;;
20449;SDS011;10384;51.940;8.432;2022-08-20T02:48:11;18.77;;;8.57;;
20449;SDS011;10384;51.940;8.432;2022-08-20T02:50:42;16.93;;;8.50;;
20449;SDS011;10384;51.940;8.432;2022-08-20T02:53:09;16.30;;;8.27;;
20449;SDS011;10384;51.940;8.432;2022-08-20T02:55:35;21.40;;;9.67;;
20449;SDS011;10384;51.940;8.432;2022-08-20T02:58:01;16.80;;;8.80;;
20449;SDS011;10384;51.940;8.432;2022-08-20T03:00:28;20.37;;;8.83;;
20449;SDS011;10384;51.940;8.432;2022-08-20T03:02:55;20.03;;;9.10;;
20449;SDS011;10384;51.940;8.432;2022-08-20T03:05:21;18.50;;;8.00;;
20449;SDS011;10384;51.940;8.432;2022-08-20T03:07:48;16.37;;;8.50;;
20449;SDS011;10384;51.940;8.432;2022-08-20T03:10:17;17.50;;;8.63;;
20449;SDS011;10384;51.940;8.432;2022-08-20T03:12:46;18.13;;;9.07;;
20449;SDS011;10384;51.940;8.432;2022-08-20T03:15:12;21.30;;;9.53;;
20449;SDS011;10384;51.940;8.432;2022-08-20T03:17:38;20.47;;;10.23;;
20449;SDS011;10384;51.940;8.432;2022-08-20T03:20:05;23.20;;;9.43;;
20449;SDS011;10384;51.940;8.432;2022-08-20T03:22:31;20.13;;;9.90;;
20449;SDS011;10384;51.940;8.432;2022-08-20T03:24:57;23.97;;;10.60;;
20449;SDS011;10384;51.940;8.432;2022-08-20T03:27:23;18.37;;;9.40;;
20449;SDS011;10384;51.940;8.432;2022-08-20T03:29:49;17.13;;;9.37;;
20449;SDS011;10384;51.940;8.432;2022-08-20T03:32:15;20.90;;;9.07;;
20449;SDS011;10384;51.940;8.432;2022-08-20T03:34:42;20.57;;;9.20;;
20449;SDS011;10384;51.940;8.432;2022-08-20T03:37:08;21.20;;;9.50;;
20449;SDS011;10384;51.940;8.432;2022-08-20T03:39:35;19.17;;;9.20;;
20449;SDS011;10384;51.940;8.432;2022-08-20T03:42:01;21.77;;;10.00;;
20449;SDS011;10384;51.940;8.432;2022-08-20T03:44:27;20.70;;;9.90;;
20449;SDS011;10384;51.940;8.432;2022-08-20T03:46:53;21.63;;;10.27;;
20449;SDS011;10384;51.940;8.432;2022-08-20T03:49:19;22.80;;;9.53;;
20449;SDS011;10384;51.940;8.432;2022-08-20T03:51:47;21.30;;;10.37;;
20449;SDS011;10384;51.940;8.432;2022-08-20T03:54:13;20.73;;;10.50;;
20449;SDS011;10384;51.940;8.432;2022-08-20T03:56:39;17.87;;;9.07;;
20449;SDS011;10384;51.940;8.432;2022-08-20T03:59:05;21.77;;;10.20;;
20449;SDS011;10384;51.940;8.432;2022-08-20T04:01:32;25.47;;;10.93;;
20449;SDS011;10384;51.940;8.432;2022-08-20T04:03:58;23.13;;;10.40;;
20449;SDS011;10384;51.940;8.432;2022-08-20T04:06:24;22.93;;;10.73;;
20449;SDS011;10384;51.940;8.432;2022-08-20T04:08:53;22.60;;;10.47;;
20449;SDS011;10384;51.940;8.432;2022-08-20T04:11:19;26.03;;;11.33;;
20449;SDS011;10384;51.940;8.432;2022-08-20T04:13:45;23.27;;;10.20;;
20449;SDS011;10384;51.940;8.432;2022-08-20T04:16:10;25.53;;;11.20;;
20449;SDS011;10384;51.940;8.432;2022-08-20T04:18:36;24.00;;;10.57;;
20449;SDS011;10384;51.940;8.432;2022-08-20T04:21:03;26.03;;;11.20;;
20449;SDS011;10384;51.940;8.432;2022-08-20T04:23:29;23.97;;;10.20;;
20449;SDS011;10384;51.940;8.432;2022-08-20T04:25:56;23.37;;;11.53;;
20449;SDS011;10384;51.940;8.432;2022-08-20T04:28:23;26.13;;;10.80;;
20449;SDS011;10384;51.940;8.432;2022-08-20T04:30:55;22.63;;;10.10;;
20449;SDS011;10384;51.940;8.432;2022-08-20T04:33:21;23.47;;;10.73;;
20449;SDS011;10384;51.940;8.432;2022-08-20T04:35:49;25.37;;;12.10;;
20449;SDS011;10384;51.940;8.432;2022-08-20T04:38:16;22.67;;;10.30;;
20449;SDS011;10384;51.940;8.432;2022-08-20T04:40:42;23.97;;;10.47;;
20449;SDS011;10384;51.940;8.432;2022-08-20T04:43:17;24.83;;;11.33;;
20449;SDS011;10384;51.940;8.432;2022-08-20T04:45:44;22.87;;;10.00;;
20449;SDS011;10384;51.940;8.432;2022-08-20T04:48:10;22.50;;;10.03;;
20449;SDS011;10384;51.940;8.432;2022-08-20T04:50:37;22.93;;;10.53;;
20449;SDS011;10384;51.940;8.432;2022-08-20T04:53:04;21.93;;;10.60;;
20449;SDS011;10384;51.940;8.432;2022-08-20T04:55:30;25.90;;;10.67;;
20449;SDS011;10384;51.940;8.432;2022-08-20T04:58:08;25.13;;;10.50;;
20449;SDS011;10384;51.940;8.432;2022-08-20T05:00:35;24.70;;;11.13;;
20449;SDS011;10384;51.940;8.432;2022-08-20T05:03:02;20.33;;;9.50;;
20449;SDS011;10384;51.940;8.432;2022-08-20T05:05:30;22.50;;;10.10;;
20449;SDS011;10384;51.940;8.432;2022-08-20T05:07:59;24.40;;;9.83;;
20449;SDS011;10384;51.940;8.432;2022-08-20T05:10:25;19.80;;;9.40;;
20449;SDS011;10384;51.940;8.432;2022-08-20T05:12:51;20.93;;;10.03;;
20449;SDS011;10384;51.940;8.432;2022-08-20T05:15:17;22.17;;;9.87;;
20449;SDS011;10384;51.940;8.432;2022-08-20T05:17:43;18.90;;;8.67;;
20449;SDS011;10384;51.940;8.432;2022-08-20T05:20:11;18.87;;;9.20;;
20449;SDS011;10384;51.940;8.432;2022-08-20T05:22:37;20.13;;;8.83;;
20449;SDS011;10384;51.940;8.432;2022-08-20T05:25:04;20.20;;;8.97;;
20449;SDS011;10384;51.940;8.432;2022-08-20T05:27:30;17.83;;;9.30;;
20449;SDS011;10384;51.940;8.432;2022-08-20T05:30:00;21.73;;;9.27;;
20449;SDS011;10384;51.940;8.432;2022-08-20T05:32:29;20.03;;;8.67;;
20449;SDS011;10384;51.940;8.432;2022-08-20T05:34:55;20.97;;;8.57;;
20449;SDS011;10384;51.940;8.432;2022-08-20T05:37:21;18.87;;;8.80;;
20449;SDS011;10384;51.940;8.432;2022-08-20T05:39:48;18.03;;;7.43;;
20449;SDS011;10384;51.940;8.432;2022-08-20T05:42:14;19.90;;;8.60;;
20449;SDS011;10384;51.940;8.432;2022-08-20T05:44:41;19.30;;;8.73;;
20449;SDS011;10384;51.940;8.432;2022-08-20T05:47:07;19.17;;;8.50;;
20449;SDS011;10384;51.940;8.432;2022-08-20T05:49:34;23.30;;;9.67;;
20449;SDS011;10384;51.940;8.432;2022-08-20T05:52:02;20.50;;;9.17;;
20449;SDS011;10384;51.940;8.432;2022-08-20T05:54:29;20.10;;;9.20;;
20449;SDS011;10384;51.940;8.432;2022-08-20T05:56:55;17.67;;;8.73;;
20449;SDS011;10384;51.940;8.432;2022-08-20T05:59:21;22.30;;;9.53;;
20449;SDS011;10384;51.940;8.432;2022-08-20T06:01:48;21.77;;;10.10;;
20449;SDS011;10384;51.940;8.432;2022-08-20T06:04:14;22.27;;;8.97;;
20449;SDS011;10384;51.940;8.432;2022-08-20T06:06:51;19.77;;;8.77;;
20449;SDS011;10384;51.940;8.432;2022-08-20T06:09:19;23.27;;;9.43;;
20449;SDS011;10384;51.940;8.432;2022-08-20T06:11:45;22.80;;;10.30;;
20449;SDS011;10384;51.940;8.432;2022-08-20T06:14:11;25.57;;;10.40;;
20449;SDS011;10384;51.940;8.432;2022-08-20T06:16:37;23.27;;;10.10;;
20449;SDS011;10384;51.940;8.432;2022-08-20T06:19:04;22.57;;;10.13;;
20449;SDS011;10384;51.940;8.432;2022-08-20T06:21:30;24.87;;;10.30;;
20449;SDS011;10384;51.940;8.432;2022-08-20T06:24:00;23.17;;;9.90;;
20449;SDS011;10384;51.940;8.432;2022-08-20T06:26:26;22.50;;;9.50;;
20449;SDS011;10384;51.940;8.432;2022-08-20T06:28:52;24.03;;;10.17;;
20449;SDS011;10384;51.940;8.432;2022-08-20T06:31:18;24.77;;;9.60;;
20449;SDS011;10384;51.940;8.432;2022-08-20T06:33:45;22.87;;;9.50;;
20449;SDS011;10384;51.940;8.432;2022-08-20T06:36:11;22.43;;;10.10;;
20449;SDS011;10384;51.940;8.432;2022-08-20T06:38:37;21.50;;;8.93;;
20449;SDS011;10384;51.940;8.432;2022-08-20T06:41:04;22.60;;;10.13;;
20449;SDS011;10384;51.940;8.432;2022-08-20T06:43:30;23.97;;;9.83;;
20449;SDS011;10384;51.940;8.432;2022-08-20T06:45:56;22.00;;;10.20;;
20449;SDS011;10384;51.940;8.432;2022-08-20T06:48:22;21.53;;;9.80;;
20449;SDS011;10384;51.940;8.432;2022-08-20T06:50:48;23.27;;;9.83;;
20449;SDS011;10384;51.940;8.432;2022-08-20T06:53:18;21.63;;;9.97;;
20449;SDS011;10384;51.940;8.432;2022-08-20T06:55:45;22.27;;;10.43;;
20449;SDS011;10384;51.940;8.432;2022-08-20T06:58:11;19.93;;;9.67;;
20449;SDS011;10384;51.940;8.432;2022-08-20T07:00:39;22.97;;;10.00;;
20449;SDS011;10384;51.940;8.432;2022-08-20T07:03:06;18.07;;;8.07;;
20449;SDS011;10384;51.940;8.432;2022-08-20T07:05:34;16.97;;;8.07;;
20449;SDS011;10384;51.940;8.432;2022-08-20T07:08:00;16.87;;;6.77;;
20449;SDS011;10384;51.940;8.432;2022-08-20T07:10:26;15.43;;;6.40;;
20449;SDS011;10384;51.940;8.432;2022-08-20T07:12:52;13.87;;;6.53;;
20449;SDS011;10384;51.940;8.432;2022-08-20T07:15:19;11.73;;;5.83;;
20449;SDS011;10384;51.940;8.432;2022-08-20T07:17:49;11.07;;;5.13;;
20449;SDS011;10384;51.940;8.432;2022-08-20T07:20:15;10.33;;;4.70;;
20449;SDS011;10384;51.940;8.432;2022-08-20T07:22:41;11.17;;;5.23;;
20449;SDS011;10384;51.940;8.432;2022-08-20T07:25:09;8.60;;;4.27;;
20449;SDS011;10384;51.940;8.432;2022-08-20T07:27:35;7.67;;;4.17;;
20449;SDS011;10384;51.940;8.432;2022-08-20T07:30:01;9.47;;;4.37;;
20449;SDS011;10384;51.940;8.432;2022-08-20T07:32:46;10.63;;;5.23;;
20449;SDS011;10384;51.940;8.432;2022-08-20T07:35:13;13.33;;;6.37;;
20449;SDS011;10384;51.940;8.432;2022-08-20T07:37:40;12.47;;;5.83;;
20449;SDS011;10384;51.940;8.432;2022-08-20T07:40:07;11.63;;;5.93;;
20449;SDS011;10384;51.940;8.432;2022-08-20T07:42:36;8.37;;;4.23;;
20449;SDS011;10384;51.940;8.432;2022-08-20T07:45:03;7.50;;;4.17;;
20449;SDS011;10384;51.940;8.432;2022-08-20T07:47:29;9.57;;;4.33;;
20449;SDS011;10384;51.940;8.432;2022-08-20T07:49:58;12.60;;;5.70;;
20449;SDS011;10384;51.940;8.432;2022-08-20T07:52:24;10.97;;;5.30;;
20449;SDS011;10384;51.940;8.432;2022-08-20T07:54:50;10.30;;;5.17;;
20449;SDS011;10384;51.940;8.432;2022-08-20T07:57:16;8.77;;;4.97;;
20449;SDS011;10384;51.940;8.432;2022-08-20T07:59:42;9.90;;;5.13;;
20449;SDS011;10384;51.940;8.432;2022-08-20T08:02:10;7.93;;;4.40;;
20449;SDS011;10384;51.940;8.432;2022-08-20T08:04:36;8.50;;;4.47;;
20449;SDS011;10384;51.940;8.432;2022-08-20T08:07:02;8.27;;;4.47;;
20449;SDS011;10384;51.940;8.432;2022-08-20T08:09:28;10.17;;;4.80;;
20449;SDS011;10384;51.940;8.432;2022-08-20T08:11:55;8.30;;;4.37;;
20449;SDS011;10384;51.940;8.432;2022-08-20T08:14:24;11.07;;;4.90;;
20449;SDS011;10384;51.940;8.432;2022-08-20T08:16:54;8.90;;;5.07;;
20449;SDS011;10384;51.940;8.432;2022-08-20T08:19:21;8.90;;;4.57;;
20449;SDS011;10384;51.940;8.432;2022-08-20T08:21:48;9.13;;;5.20;;
20449;SDS011;10384;51.940;8.432;2022-08-20T08:24:14;8.90;;;4.63;;
20449;SDS011;10384;51.940;8.432;2022-08-20T08:26:41;8.73;;;4.27;;
20449;SDS011;10384;51.940;8.432;2022-08-20T08:29:07;8.13;;;4.67;;
20449;SDS011;10384;51.940;8.432;2022-08-20T08:31:33;11.03;;;5.60;;
20449;SDS011;10384;51.940;8.432;2022-08-20T08:33:59;9.90;;;5.03;;
20449;SDS011;10384;51.940;8.432;2022-08-20T08:36:25;10.53;;;5.47;;
20449;SDS011;10384;51.940;8.432;2022-08-20T08:38:52;10.43;;;5.20;;
20449;SDS011;10384;51.940;8.432;2022-08-20T08:41:20;11.10;;;5.20;;
20449;SDS011;10384;51.940;8.432;2022-08-20T08:43:47;9.83;;;5.57;;
20449;SDS011;10384;51.940;8.432;2022-08-20T08:46:15;10.80;;;5.50;;
20449;SDS011;10384;51.940;8.432;2022-08-20T08:48:43;11.83;;;5.67;;
20449;SDS011;10384;51.940;8.432;2022-08-20T08:51:10;8.97;;;4.80;;
20449;SDS011;10384;51.940;8.432;2022-08-20T08:53:41;10.27;;;4.87;;
20449;SDS011;10384;51.940;8.432;2022-08-20T08:56:10;10.50;;;5.07;;
20449;SDS011;10384;51.940;8.432;2022-08-20T08:58:38;11.17;;;5.37;;
20449;SDS011;10384;51.940;8.432;2022-08-20T09:01:13;9.17;;;4.97;;
20449;SDS011;10384;51.940;8.432;2022-08-20T09:03:39;10.97;;;6.20;;
20449;SDS011;10384;51.940;8.432;2022-08-20T09:06:14;6.17;;;4.33;;
20449;SDS011;10384;51.940;8.432;2022-08-20T09:09:14;4.60;;;3.20;;
20449;SDS011;10384;51.940;8.432;2022-08-20T09:11:43;4.70;;;2.97;;
20449;SDS011;10384;51.940;8.432;2022-08-20T09:14:10;8.77;;;3.43;;
20449;SDS011;10384;51.940;8.432;2022-08-20T09:16:36;6.03;;;3.77;;
20449;SDS011;10384;51.940;8.432;2022-08-20T09:19:02;6.17;;;4.07;;
20449;SDS011;10384;51.940;8.432;2022-08-20T09:21:28;7.77;;;4.23;;
20449;SDS011;10384;51.940;8.432;2022-08-20T09:23:54;7.80;;;4.07;;
20449;SDS011;10384;51.940;8.432;2022-08-20T09:26:20;8.27;;;4.40;;
20449;SDS011;10384;51.940;8.432;2022-08-20T09:28:46;7.83;;;4.83;;
20449;SDS011;10384;51.940;8.432;2022-08-20T09:31:12;8.67;;;4.93;;
20449;SDS011;10384;51.940;8.432;2022-08-20T09:33:38;8.37;;;5.07;;
20449;SDS011;10384;51.940;8.432;2022-08-20T09:36:04;8.93;;;5.40;;
20449;SDS011;10384;51.940;8.432;2022-08-20T09:38:30;8.97;;;5.20;;
20449;SDS011;10384;51.940;8.432;2022-08-20T09:40:56;8.17;;;4.90;;
20449;SDS011;10384;51.940;8.432;2022-08-20T09:43:22;7.57;;;4.97;;
20449;SDS011;10384;51.940;8.432;2022-08-20T09:45:48;9.93;;;5.40;;
20449;SDS011;10384;51.940;8.432;2022-08-20T09:48:14;13.17;;;5.60;;
20449;SDS011;10384;51.940;8.432;2022-08-20T09:50:43;8.40;;;4.90;;
20449;SDS011;10384;51.940;8.432;2022-08-20T09:53:10;7.90;;;4.77;;
20449;SDS011;10384;51.940;8.432;2022-08-20T09:55:37;9.67;;;4.60;;
20449;SDS011;10384;51.940;8.432;2022-08-20T09:58:16;6.87;;;3.93;;
20449;SDS011;10384;51.940;8.432;2022-08-20T10:00:43;6.87;;;4.23;;
20449;SDS011;10384;51.940;8.432;2022-08-20T10:03:10;10.23;;;5.27;;
20449;SDS011;10384;51.940;8.432;2022-08-20T10:05:35;8.00;;;4.27;;
20449;SDS011;10384;51.940;8.432;2022-08-20T10:08:05;7.23;;;4.13;;
20449;SDS011;10384;51.940;8.432;2022-08-20T10:10:31;7.57;;;4.37;;
20449;SDS011;10384;51.940;8.432;2022-08-20T10:12:57;11.63;;;4.40;;
20449;SDS011;10384;51.940;8.432;2022-08-20T10:15:23;8.43;;;4.50;;
20449;SDS011;10384;51.940;8.432;2022-08-20T10:17:49;9.40;;;4.20;;
20449;SDS011;10384;51.940;8.432;2022-08-20T10:20:15;8.03;;;4.20;;
20449;SDS011;10384;51.940;8.432;2022-08-20T10:22:42;10.50;;;4.40;;
20449;SDS011;10384;51.940;8.432;2022-08-20T10:25:09;7.77;;;4.20;;
20449;SDS011;10384;51.940;8.432;2022-08-20T10:27:35;8.03;;;4.37;;
20449;SDS011;10384;51.940;8.432;2022-08-20T10:30:01;9.60;;;4.33;;
20449;SDS011;10384;51.940;8.432;2022-08-20T10:32:27;7.93;;;3.80;;
20449;SDS011;10384;51.940;8.432;2022-08-20T10:34:53;5.63;;;3.57;;
20449;SDS011;10384;51.940;8.432;2022-08-20T10:37:20;7.30;;;3.57;;
20449;SDS011;10384;51.940;8.432;2022-08-20T10:39:47;7.30;;;3.73;;
20449;SDS011;10384;51.940;8.432;2022-08-20T10:42:13;8.50;;;4.10;;
20449;SDS011;10384;51.940;8.432;2022-08-20T10:44:39;7.60;;;4.23;;
20449;SDS011;10384;51.940;8.432;2022-08-20T10:47:39;8.13;;;4.40;;
20449;SDS011;10384;51.940;8.432;2022-08-20T10:49:58;9.23;;;4.53;;
20449;SDS011;10384;51.940;8.432;2022-08-20T10:52:25;7.47;;;4.30;;
20449;SDS011;10384;51.940;8.432;2022-08-20T10:54:51;7.63;;;3.87;;
20449;SDS011;10384;51.940;8.432;2022-08-20T10:57:19;7.23;;;4.80;;
20449;SDS011;10384;51.940;8.432;2022-08-20T10:59:46;6.80;;;3.40;;
20449;SDS011;10384;51.940;8.432;2022-08-20T11:02:12;5.77;;;3.40;;
20449;SDS011;10384;51.940;8.432;2022-08-20T11:04:39;8.17;;;4.57;;
20449;SDS011;10384;51.940;8.432;2022-08-20T11:07:12;6.77;;;4.37;;
20449;SDS011;10384;51.940;8.432;2022-08-20T11:09:39;7.97;;;3.60;;
20449;SDS011;10384;51.940;8.432;2022-08-20T11:12:05;3.77;;;2.43;;
20449;SDS011;10384;51.940;8.432;2022-08-20T11:14:31;7.00;;;2.53;;
20449;SDS011;10384;51.940;8.432;2022-08-20T11:16:58;7.13;;;3.73;;
20449;SDS011;10384;51.940;8.432;2022-08-20T11:19:24;8.20;;;3.40;;
20449;SDS011;10384;51.940;8.432;2022-08-20T11:21:50;8.70;;;3.60;;
20449;SDS011;10384;51.940;8.432;2022-08-20T11:24:15;8.67;;;3.40;;
20449;SDS011;10384;51.940;8.432;2022-08-20T11:26:42;5.90;;;3.33;;
20449;SDS011;10384;51.940;8.432;2022-08-20T11:29:10;4.60;;;3.00;;
20449;SDS011;10384;51.940;8.432;2022-08-20T11:31:36;3.90;;;3.03;;
20449;SDS011;10384;51.940;8.432;2022-08-20T11:34:02;3.73;;;2.87;;
20449;SDS011;10384;51.940;8.432;2022-08-20T11:36:28;5.80;;;3.13;;
20449;SDS011;10384;51.940;8.432;2022-08-20T11:38:54;5.23;;;2.37;;
20449;SDS011;10384;51.940;8.432;2022-08-20T11:41:20;3.93;;;2.30;;
20449;SDS011;10384;51.940;8.432;2022-08-20T11:43:46;3.80;;;2.90;;
20449;SDS011;10384;51.940;8.432;2022-08-20T11:46:12;3.70;;;2.30;;
20449;SDS011;10384;51.940;8.432;2022-08-20T11:48:38;4.10;;;2.63;;
20449;SDS011;10384;51.940;8.432;2022-08-20T11:51:04;4.10;;;2.70;;
20449;SDS011;10384;51.940;8.432;2022-08-20T11:53:30;6.50;;;2.77;;
20449;SDS011;10384;51.940;8.432;2022-08-20T11:55:56;3.23;;;2.53;;
20449;SDS011;10384;51.940;8.432;2022-08-20T11:58:22;3.97;;;2.33;;
20449;SDS011;10384;51.940;8.432;2022-08-20T12:00:48;5.20;;;2.60;;
20449;SDS011;10384;51.940;8.432;2022-08-20T12:03:14;3.73;;;2.23;;
20449;SDS011;10384;51.940;8.432;2022-08-20T12:05:41;4.40;;;3.00;;
20449;SDS011;10384;51.940;8.432;2022-08-20T12:08:07;4.20;;;2.77;;
20449;SDS011;10384;51.940;8.432;2022-08-20T12:10:33;4.20;;;2.80;;
20449;SDS011;10384;51.940;8.432;2022-08-20T12:12:59;5.80;;;2.47;;
20449;SDS011;10384;51.940;8.432;2022-08-20T12:15:26;3.77;;;2.90;;
20449;SDS011;10384;51.940;8.432;2022-08-20T12:17:52;3.43;;;2.70;;
20449;SDS011;10384;51.940;8.432;2022-08-20T12:20:18;2.93;;;2.40;;
20449;SDS011;10384;51.940;8.432;2022-08-20T12:22:44;5.37;;;2.80;;
20449;SDS011;10384;51.940;8.432;2022-08-20T12:25:11;5.30;;;2.93;;
20449;SDS011;10384;51.940;8.432;2022-08-20T12:27:37;4.57;;;2.80;;
20449;SDS011;10384;51.940;8.432;2022-08-20T12:30:14;3.63;;;2.57;;
20449;SDS011;10384;51.940;8.432;2022-08-20T12:32:41;2.80;;;2.30;;
20449;SDS011;10384;51.940;8.432;2022-08-20T12:35:07;3.00;;;1.83;;
20449;SDS011;10384;51.940;8.432;2022-08-20T12:37:34;2.70;;;2.10;;
20449;SDS011;10384;51.940;8.432;2022-08-20T12:40:02;2.17;;;1.60;;
20449;SDS011;10384;51.940;8.432;2022-08-20T12:42:29;1.60;;;1.50;;
20449;SDS011;10384;51.940;8.432;2022-08-20T12:44:56;2.00;;;1.50;;
20449;SDS011;10384;51.940;8.432;2022-08-20T12:47:26;3.13;;;1.90;;
20449;SDS011;10384;51.940;8.432;2022-08-20T12:49:56;3.83;;;1.87;;
20449;SDS011;10384;51.940;8.432;2022-08-20T12:52:24;2.73;;;2.10;;
20449;SDS011;10384;51.940;8.432;2022-08-20T12:54:51;4.20;;;2.70;;
20449;SDS011;10384;51.940;8.432;2022-08-20T12:57:27;6.10;;;2.37;;
20449;SDS011;10384;51.940;8.432;2022-08-20T12:59:54;3.17;;;2.13;;
20449;SDS011;10384;51.940;8.432;2022-08-20T13:02:20;3.57;;;2.27;;
20449;SDS011;10384;51.940;8.432;2022-08-20T13:04:46;2.40;;;2.20;;
20449;SDS011;10384;51.940;8.432;2022-08-20T13:07:12;4.20;;;2.73;;
20449;SDS011;10384;51.940;8.432;2022-08-20T13:09:39;3.83;;;2.90;;
20449;SDS011;10384;51.940;8.432;2022-08-20T13:12:05;3.67;;;2.40;;
20449;SDS011;10384;51.940;8.432;2022-08-20T13:14:31;3.93;;;2.70;;
20449;SDS011;10384;51.940;8.432;2022-08-20T13:16:58;4.37;;;2.30;;
20449;SDS011;10384;51.940;8.432;2022-08-20T13:19:24;3.60;;;2.30;;
20449;SDS011;10384;51.940;8.432;2022-08-20T13:21:51;7.53;;;3.33;;
20449;SDS011;10384;51.940;8.432;2022-08-20T13:24:17;5.50;;;2.60;;
20449;SDS011;10384;51.940;8.432;2022-08-20T13:26:43;3.30;;;2.30;;
20449;SDS011;10384;51.940;8.432;2022-08-20T13:29:09;4.13;;;2.27;;
20449;SDS011;10384;51.940;8.432;2022-08-20T13:31:35;3.30;;;2.30;;
20449;SDS011;10384;51.940;8.432;2022-08-20T13:34:01;5.83;;;2.40;;
20449;SDS011;10384;51.940;8.432;2022-08-20T13:36:27;4.27;;;2.33;;
20449;SDS011;10384;51.940;8.432;2022-08-20T13:38:53;2.93;;;2.23;;
20449;SDS011;10384;51.940;8.432;2022-08-20T13:41:19;2.50;;;2.10;;
20449;SDS011;10384;51.940;8.432;2022-08-20T13:43:45;3.83;;;2.00;;
20449;SDS011;10384;51.940;8.432;2022-08-20T13:46:11;3.87;;;2.40;;
20449;SDS011;10384;51.940;8.432;2022-08-20T13:48:37;3.50;;;2.20;;
20449;SDS011;10384;51.940;8.432;2022-08-20T13:51:03;2.80;;;2.10;;
20449;SDS011;10384;51.940;8.432;2022-08-20T13:53:29;2.90;;;2.20;;
20449;SDS011;10384;51.940;8.432;2022-08-20T13:55:55;5.93;;;2.13;;
20449;SDS011;10384;51.940;8.432;2022-08-20T13:58:22;3.37;;;2.40;;
20449;SDS011;10384;51.940;8.432;2022-08-20T14:00:48;4.47;;;2.23;;
20449;SDS011;10384;51.940;8.432;2022-08-20T14:03:14;3.93;;;2.03;;
20449;SDS011;10384;51.940;8.432;2022-08-20T14:05:41;4.00;;;2.10;;
20449;SDS011;10384;51.940;8.432;2022-08-20T14:08:15;3.40;;;2.40;;
20449;SDS011;10384;51.940;8.432;2022-08-20T14:10:41;3.37;;;2.20;;
20449;SDS011;10384;51.940;8.432;2022-08-20T14:13:07;2.70;;;2.10;;
20449;SDS011;10384;51.940;8.432;2022-08-20T14:15:34;3.60;;;2.00;;
20449;SDS011;10384;51.940;8.432;2022-08-20T14:18:00;4.03;;;2.30;;
20449;SDS011;10384;51.940;8.432;2022-08-20T14:20:27;4.33;;;2.07;;
20449;SDS011;10384;51.940;8.432;2022-08-20T14:22:53;8.73;;;2.20;;
20449;SDS011;10384;51.940;8.432;2022-08-20T14:25:20;4.57;;;2.10;;
20449;SDS011;10384;51.940;8.432;2022-08-20T14:27:46;2.57;;;2.20;;
20449;SDS011;10384;51.940;8.432;2022-08-20T14:30:14;4.13;;;2.10;;
20449;SDS011;10384;51.940;8.432;2022-08-20T14:32:40;4.47;;;2.30;;
20449;SDS011;10384;51.940;8.432;2022-08-20T14:35:06;5.40;;;2.47;;
20449;SDS011;10384;51.940;8.432;2022-08-20T14:37:33;4.60;;;2.50;;
20449;SDS011;10384;51.940;8.432;2022-08-20T14:40:02;4.80;;;2.60;;